Time;durP1;ratioP1;P1;durP2;ratioP2;P2;SDS_P1;SDS_P2;PMS_P1;PMS_P2;Temp;Humidity;BMP_temperature;BMP_pressure;BME280_temperature;BME280_humidity;BME280_pressure;Samples;Min_cycle;Max_cycle;Signal;HPM_P1;HPM_P2
2022/07/05 00:02:58;;;;;;;2.67;1.00;;;;;;;18.43;49.41;100079.19;12197013;19;20006;-81
2022/07/05 00:07:18;;;;;;;1.73;1.10;;;;;;;18.44;49.52;100074.44;12197166;19;20006;-83
2022/07/05 00:11:20;;;;;;;3.25;1.27;;;;;;;18.39;49.73;100077.31;12169814;19;20030;-82
2022/07/05 00:15:22;;;;;;;2.65;0.90;;;;;;;18.34;49.84;100075.38;12199820;19;20053;-80
2022/07/05 00:19:23;;;;;;;2.47;1.10;;;;;;;18.33;50.06;100078.47;12196259;19;20093;-84
2022/07/05 00:23:25;;;;;;;2.67;1.00;;;;;;;18.30;50.20;100079.91;12218044;19;20066;-83
2022/07/05 00:27:26;;;;;;;1.20;0.90;;;;;;;18.27;50.30;100068.50;12215414;19;20094;-82
2022/07/05 00:31:28;;;;;;;3.20;1.13;;;;;;;18.22;50.56;100070.19;12188664;19;20028;-82
2022/07/05 00:35:30;;;;;;;1.88;1.17;;;;;;;18.19;50.29;100073.59;12215376;19;20023;-82
2022/07/05 00:39:31;;;;;;;3.17;1.15;;;;;;;18.17;50.35;100080.56;12210342;19;20420;-80
2022/07/05 00:43:33;;;;;;;1.50;1.10;;;;;;;18.14;50.98;100083.94;12188490;19;20652;-82
2022/07/05 00:47:35;;;;;;;1.30;0.98;;;;;;;18.08;51.06;100077.59;12209045;19;20010;-82
2022/07/05 00:51:38;;;;;;;5.00;1.40;;;;;;;18.02;51.49;100084.34;12212395;19;20014;-82
2022/07/05 00:55:59;;;;;;;3.35;1.10;;;;;;;17.94;51.25;100087.78;12190429;19;20003;-82
2022/07/05 01:00:01;;;;;;;3.03;1.23;;;;;;;17.87;51.58;100090.06;12199790;19;20006;-83
2022/07/05 01:04:03;;;;;;;2.10;1.15;;;;;;;17.81;52.03;100082.84;12210656;19;20031;-82
2022/07/05 01:08:05;;;;;;;3.50;1.17;;;;;;;17.76;52.67;100081.75;12186164;19;20037;-82
2022/07/05 01:12:08;;;;;;;2.90;1.27;;;;;;;17.71;52.77;100084.56;12213948;19;20010;-82
2022/07/05 01:16:10;;;;;;;2.05;1.10;;;;;;;17.65;52.99;100087.69;12260973;19;20023;-80
2022/07/05 01:20:12;;;;;;;3.17;1.50;;;;;;;17.60;53.38;100088.56;12203936;19;20097;-84
2022/07/05 01:24:16;;;;;;;3.63;1.30;;;;;;;17.51;53.39;100079.16;12210342;19;20014;-84
2022/07/05 01:28:22;;;;;;;3.72;1.33;;;;;;;17.43;53.67;100082.53;12206201;19;20011;-83
2022/07/05 01:32:25;;;;;;;3.38;0.95;;;;;;;17.35;54.03;100080.38;12215116;19;20010;-83
2022/07/05 01:36:27;;;;;;;6.40;1.60;;;;;;;17.27;54.59;100077.06;12212901;19;20795;-82
2022/07/05 01:40:28;;;;;;;3.45;1.27;;;;;;;17.22;55.21;100074.34;12192284;19;20101;-83
2022/07/05 01:44:30;;;;;;;3.15;1.33;;;;;;;17.18;55.58;100080.75;12211817;19;20010;-83
2022/07/05 01:48:36;;;;;;;3.20;1.20;;;;;;;17.09;56.19;100084.13;12207220;19;20090;-82
2022/07/05 01:52:42;;;;;;;9.82;1.52;;;;;;;17.02;56.05;100088.38;12195660;19;20024;-81
2022/07/05 01:56:43;;;;;;;2.88;1.25;;;;;;;16.96;56.41;100082.00;12198890;19;20030;-81
2022/07/05 02:00:50;;;;;;;3.85;1.40;;;;;;;16.91;56.96;100089.53;12207198;19;20023;-83
2022/07/05 02:04:52;;;;;;;7.55;1.75;;;;;;;16.85;56.96;100083.16;12186195;19;20731;-81
2022/07/05 02:08:55;;;;;;;2.67;1.10;;;;;;;16.77;57.28;100081.78;12205923;19;20098;-80
2022/07/05 02:12:57;;;;;;;4.50;1.40;;;;;;;16.70;57.67;100084.00;12201714;19;20128;-82
2022/07/05 02:16:59;;;;;;;2.45;1.42;;;;;;;16.64;57.27;100091.53;12183710;19;20037;-81
2022/07/05 02:21:02;;;;;;;3.10;1.27;;;;;;;16.54;57.69;100094.38;12201250;19;20002;-81
2022/07/05 02:25:05;;;;;;;3.50;1.20;;;;;;;16.45;58.33;100090.50;12203857;19;20010;-81
2022/07/05 02:29:07;;;;;;;1.80;1.20;;;;;;;16.36;58.80;100092.19;12185291;19;20347;-83
2022/07/05 02:33:10;;;;;;;1.65;1.20;;;;;;;16.28;59.38;100085.25;12211130;19;20015;-82
2022/07/05 02:37:12;;;;;;;3.22;1.38;;;;;;;16.20;59.41;100076.63;12193316;19;20027;-82
2022/07/05 02:41:14;;;;;;;4.20;1.25;;;;;;;16.13;60.53;100076.94;12183365;19;20011;-82
2022/07/05 02:45:19;;;;;;;1.95;1.10;;;;;;;16.10;60.63;100086.66;12188076;19;20006;-81
2022/07/05 02:49:27;;;;;;;2.90;1.15;;;;;;;16.07;60.68;100091.97;12184434;19;20007;-80
2022/07/05 02:53:30;;;;;;;1.73;1.05;;;;;;;16.04;60.68;100086.94;12216091;19;20064;-82
2022/07/05 02:57:33;;;;;;;3.60;1.23;;;;;;;16.00;60.97;100083.03;12211157;19;20491;-83
2022/07/05 03:01:37;;;;;;;4.50;1.65;;;;;;;15.92;61.64;100085.28;12187096;19;20252;-82
2022/07/05 03:05:44;;;;;;;3.60;1.40;;;;;;;15.90;61.79;100079.16;12204822;19;20026;-82
2022/07/05 03:09:46;;;;;;;5.00;1.50;;;;;;;15.89;61.96;100076.69;12211219;19;20006;-80
2022/07/05 03:13:49;;;;;;;3.80;1.60;;;;;;;15.86;62.34;100083.63;12177482;19;20014;-81
2022/07/05 03:17:51;;;;;;;4.63;1.48;;;;;;;15.82;62.50;100099.16;12200398;19;20109;-81
2022/07/05 03:21:55;;;;;;;4.47;1.63;;;;;;;15.70;62.65;100104.16;12208857;19;20018;-80
2022/07/05 03:25:58;;;;;;;4.18;1.48;;;;;;;15.61;63.32;100103.84;12173210;19;20322;-81
2022/07/05 03:30:01;;;;;;;3.17;1.57;;;;;;;15.60;63.38;100106.91;12207409;19;20362;-81
2022/07/05 03:34:06;;;;;;;4.97;1.70;;;;;;;15.59;63.86;100108.03;12198753;19;20013;-81
2022/07/05 03:38:08;;;;;;;2.83;1.42;;;;;;;15.61;63.87;100109.41;12177494;19;20093;-81
2022/07/05 03:42:10;;;;;;;5.13;1.50;;;;;;;15.60;63.81;100127.19;12193315;19;20014;-81
2022/07/05 03:46:13;;;;;;;;;;;;;;;15.59;63.92;100127.47;12207368;19;20031;-80
2022/07/05 03:50:16;;;;;;;3.22;1.58;;;;;;;15.58;63.98;100126.63;12177045;19;20023;-81
2022/07/05 03:54:18;;;;;;;2.03;1.40;;;;;;;15.58;64.36;100125.78;12205129;19;20098;-82
2022/07/05 03:58:22;;;;;;;4.65;1.88;;;;;;;15.60;65.06;100126.34;12189461;19;20077;-82
2022/07/05 04:02:24;;;;;;;3.42;1.30;;;;;;;15.68;64.88;100125.84;12193351;19;20017;-82
2022/07/05 04:06:27;;;;;;;;;;;;;;;15.76;64.31;100132.78;12193955;19;20017;-82
2022/07/05 04:10:30;;;;;;;4.23;1.70;;;;;;;15.82;64.32;100132.50;12180820;19;19939;-83
2022/07/05 04:14:33;;;;;;;;;;;;;;;15.80;65.47;100123.63;12200557;19;20014;-81
2022/07/05 04:18:35;;;;;;;4.07;1.58;;;;;;;15.80;64.73;100122.81;12197108;19;19915;-83
2022/07/05 04:22:38;;;;;;;;;;;;;;;15.77;64.96;100143.66;12175325;19;20581;-83
2022/07/05 04:26:40;;;;;;;4.05;1.60;;;;;;;15.77;65.01;100140.03;12203493;19;20001;-80
2022/07/05 04:30:43;;;;;;;5.75;1.70;;;;;;;15.73;65.69;100148.06;12193296;19;20018;-82
2022/07/05 04:34:47;;;;;;;4.70;1.75;;;;;;;15.73;65.54;100153.63;12230898;19;20007;-79
2022/07/05 04:38:48;;;;;;;3.17;1.67;;;;;;;15.72;65.80;100161.13;12212105;19;22070;-82
2022/07/05 04:42:51;;;;;;;3.90;1.77;;;;;;;15.74;66.08;100169.19;12201484;19;20046;-81
2022/07/05 04:46:53;;;;;;;3.25;1.52;;;;;;;15.78;66.72;100159.19;12185674;19;20656;-83
2022/07/05 04:50:55;;;;;;;4.57;1.65;;;;;;;15.83;66.90;100162.00;12202573;19;20010;-80
2022/07/05 04:54:59;;;;;;;3.92;1.77;;;;;;;15.90;67.29;100161.72;12200105;19;20007;-82
2022/07/05 04:59:00;;;;;;;2.90;1.50;;;;;;;15.94;67.30;100160.88;12175266;19;20007;-84
2022/07/05 05:03:02;;;;;;;3.30;1.73;;;;;;;16.01;67.20;100168.13;12205066;19;20118;-84
2022/07/05 05:07:04;;;;;;;3.28;1.60;;;;;;;16.03;67.54;100165.88;12215164;19;20058;-80
2022/07/05 05:11:05;;;;;;;2.88;1.63;;;;;;;16.10;67.43;100172.00;12190186;19;20653;-81
2022/07/05 05:15:10;;;;;;;3.40;1.45;;;;;;;16.15;67.57;100172.00;12207853;19;20089;-84
2022/07/05 05:19:12;;;;;;;3.30;1.70;;;;;;;16.26;67.93;100165.31;12210252;19;20010;-84
2022/07/05 05:23:14;;;;;;;2.25;1.70;;;;;;;16.31;68.01;100162.53;12185744;19;20081;-84
2022/07/05 05:27:17;;;;;;;3.97;1.58;;;;;;;16.41;68.23;100170.88;12210962;19;20083;-83
2022/07/05 05:31:19;;;;;;;2.72;1.38;;;;;;;16.53;68.32;100161.41;12203262;19;20385;-83
2022/07/05 05:35:23;;;;;;;3.65;1.73;;;;;;;16.63;68.00;100175.31;12191133;19;20078;-83
2022/07/05 05:39:25;;;;;;;6.43;2.05;;;;;;;16.74;67.56;100168.56;12212267;19;20013;-81
2022/07/05 05:43:26;;;;;;;5.65;1.77;;;;;;;16.90;67.30;100175.00;12193000;19;20010;-82
2022/07/05 05:47:28;;;;;;;3.97;1.40;;;;;;;17.03;67.65;100179.94;12208613;19;20014;-83
2022/07/05 05:51:31;;;;;;;;;;;;;;;17.15;66.89;100182.41;12206901;19;20411;-82
2022/07/05 05:55:33;;;;;;;2.25;1.60;;;;;;;17.28;65.92;100184.59;12190895;19;19971;-81
2022/07/05 05:59:35;;;;;;;6.32;1.70;;;;;;;17.46;65.08;100187.81;12206207;19;20385;-82
2022/07/05 06:03:37;;;;;;;4.75;1.45;;;;;;;17.71;63.94;100192.44;12209331;19;20013;-82
2022/07/05 06:07:48;;;;;;;3.30;1.65;;;;;;;17.90;62.53;100203.78;12188017;19;20031;-82
2022/07/05 06:11:50;;;;;;;7.60;1.77;;;;;;;18.12;61.91;100203.34;12202246;19;20045;-81
2022/07/05 06:15:51;;;;;;;5.40;1.63;;;;;;;18.31;61.01;100212.66;12201800;19;20070;-83
2022/07/05 06:19:53;;;;;;;4.05;1.45;;;;;;;18.52;59.72;100204.13;12179371;19;20034;-82
2022/07/05 06:23:55;;;;;;;4.03;1.60;;;;;;;18.77;58.43;100211.44;12207123;19;20017;-82
2022/07/05 06:28:07;;;;;;;2.40;1.47;;;;;;;19.00;58.12;100219.00;12202161;19;20040;-82
2022/07/05 06:32:09;;;;;;;4.65;1.73;;;;;;;19.16;57.66;100210.47;12184944;19;20011;-82
2022/07/05 06:36:11;;;;;;;8.55;2.00;;;;;;;19.33;57.30;100213.59;12201743;19;20502;-82
2022/07/05 06:40:17;;;;;;;6.43;1.73;;;;;;;19.47;56.79;100220.13;12199873;19;20074;-81
2022/07/05 06:44:19;;;;;;;4.30;1.50;;;;;;;19.68;56.49;100220.72;12181484;19;19998;-82
2022/07/05 06:48:36;;;;;;;4.05;1.50;;;;;;;19.96;56.01;100218.94;12192059;19;20006;-82
2022/07/05 06:52:39;;;;;;;3.45;2.00;;;;;;;20.18;55.12;100218.31;12176356;19;20014;-83
2022/07/05 06:56:41;;;;;;;;;;;;;;;20.34;54.36;100210.47;12191462;19;20006;-82
2022/07/05 07:01:03;;;;;;;4.43;1.85;;;;;;;20.53;53.61;100218.88;12177032;19;19929;-83
2022/07/05 07:05:24;;;;;;;2.45;1.50;;;;;;;20.77;53.42;100207.53;12177439;19;20007;-84
2022/07/05 07:09:30;;;;;;;2.85;1.70;;;;;;;20.96;52.57;100218.66;12206573;19;20002;-84
2022/07/05 07:13:32;;;;;;;4.43;1.60;;;;;;;21.20;51.72;100220.44;12183926;19;20011;-83
2022/07/05 07:17:36;;;;;;;7.22;2.15;;;;;;;21.47;50.49;100220.47;12208487;19;20021;-82
2022/07/05 07:21:38;;;;;;;3.17;1.57;;;;;;;21.68;49.81;100225.63;12192428;19;20054;-82
2022/07/05 07:25:40;;;;;;;6.93;2.17;;;;;;;21.91;49.16;100229.34;12177608;19;20034;-83
2022/07/05 07:29:42;;;;;;;6.95;1.95;;;;;;;22.13;48.63;100229.38;12206016;19;20018;-83
2022/07/05 07:33:45;;;;;;;6.57;1.95;;;;;;;22.36;47.57;100235.84;12212745;19;20488;-84
2022/07/05 07:37:47;;;;;;;7.32;2.00;;;;;;;22.61;48.00;100240.03;12181553;19;20006;-83
2022/07/05 07:41:49;;;;;;;9.43;1.80;;;;;;;22.96;46.98;100238.28;12195491;19;20010;-83
2022/07/05 07:45:50;;;;;;;6.60;1.67;;;;;;;23.15;45.75;100234.41;12203502;19;20467;-83
2022/07/05 07:49:53;;;;;;;6.28;1.77;;;;;;;23.31;45.15;100238.41;12184341;19;20011;-83
2022/07/05 07:53:55;;;;;;;;;;;;;;;23.54;45.07;100236.34;12253224;19;20017;-82
2022/07/05 07:58:10;;;;;;;5.80;1.73;;;;;;;23.82;44.43;100238.94;12213426;19;19911;-83
2022/07/05 08:02:12;;;;;;;5.63;1.83;;;;;;;23.99;43.97;100244.59;12183410;19;20102;-83
2022/07/05 08:06:15;;;;;;;;;;;;;;;24.19;43.35;100237.47;12209009;19;20007;-83
2022/07/05 08:10:17;;;;;;;8.73;1.80;;;;;;;24.47;42.24;100240.81;12198664;19;19924;-84
2022/07/05 08:14:19;;;;;;;3.85;1.88;;;;;;;24.60;41.23;100236.19;12159869;19;20078;-83
2022/07/05 08:22:40;;;;;;;5.55;1.80;;;;;;;24.83;40.07;100236.78;12181122;19;20787;-84
2022/07/05 08:26:43;;;;;;;7.95;1.63;;;;;;;24.94;39.66;100237.25;12208525;19;20077;-83
2022/07/05 08:30:45;;;;;;;3.80;1.75;;;;;;;25.17;39.97;100232.22;12204890;19;20014;-84
2022/07/05 08:34:50;;;;;;;3.17;1.70;;;;;;;25.27;39.20;100223.38;12192547;19;20015;-84
2022/07/05 08:39:17;;;;;;;7.78;2.10;;;;;;;25.31;38.83;100223.53;12216888;19;20015;-85
2022/07/05 08:43:23;;;;;;;6.95;1.60;;;;;;;25.48;38.11;100222.63;12231088;19;20011;-85
2022/07/05 08:47:26;;;;;;;7.47;1.38;;;;;;;25.49;37.21;100225.09;12203920;19;20554;-85
2022/07/05 08:51:28;;;;;;;2.72;1.50;;;;;;;25.84;37.55;100227.75;12218900;19;20010;-84
2022/07/05 08:55:32;;;;;;;5.95;1.55;;;;;;;25.86;36.60;100217.78;12199826;19;20022;-83
2022/07/05 08:59:41;;;;;;;6.32;1.58;;;;;;;26.03;36.91;100230.13;12219917;19;20011;-86
2022/07/05 09:03:52;;;;;;;9.32;1.70;;;;;;;26.16;35.90;100226.19;12247974;19;20018;-86
2022/07/05 09:08:00;;;;;;;3.28;1.50;;;;;;;26.19;35.95;100219.00;12202418;19;20628;-84
2022/07/05 09:12:57;;;;;;;;;;;;;;;;;;;;;
2022/07/05 09:17:01;;;;;;;2.80;1.20;;;;;;;25.81;36.10;100226.41;12200189;19;20049;-86
2022/07/05 09:21:17;;;;;;;5.60;1.27;;;;;;;26.44;35.38;100214.28;12209860;19;20006;-86
2022/07/05 09:25:23;;;;;;;2.95;1.05;;;;;;;26.71;34.66;100219.38;12225802;19;20026;-85
2022/07/05 09:29:32;;;;;;;4.32;1.15;;;;;;;26.90;33.90;100218.03;12198951;19;20014;-85
2022/07/05 09:34:31;;;;;;;6.32;1.85;;;;;;;26.59;34.01;100227.81;12214581;19;20015;-86
2022/07/05 09:38:31;;;;;;;2.67;1.27;;;;;;;26.48;34.26;100220.94;12182248;19;20107;-86
2022/07/05 09:43:14;;;;;;;5.63;1.40;;;;;;;26.85;35.14;100216.22;12218693;19;20007;-83
2022/07/05 09:47:24;;;;;;;3.97;1.27;;;;;;;27.29;33.70;100215.75;12196821;19;20381;-85
2022/07/05 09:51:49;;;;;;;5.10;1.20;;;;;;;27.42;32.82;100217.38;12222078;19;20467;-85
2022/07/05 09:56:18;;;;;;;4.47;1.10;;;;;;;27.40;32.56;100217.75;12186498;19;20544;-86
2022/07/05 10:00:33;;;;;;;1.70;0.90;;;;;;;27.39;31.29;100216.09;12209284;19;20026;-86
2022/07/05 10:04:38;;;;;;;2.00;0.95;;;;;;;27.56;31.16;100217.03;12177180;19;20035;-86
2022/07/05 10:08:47;;;;;;;1.73;1.20;;;;;;;27.66;31.90;100214.56;12207510;19;20082;-87
2022/07/05 10:13:06;;;;;;;2.90;1.20;;;;;;;27.97;31.18;100217.97;12202936;19;21384;-87
2022/07/05 10:17:17;;;;;;;3.58;0.98;;;;;;;28.26;31.25;100229.00;12212892;19;20087;-87
2022/07/05 10:22:07;;;;;;;2.60;1.33;;;;;;;28.23;30.87;100221.22;12199254;19;20473;-89
2022/07/05 10:26:33;;;;;;;6.00;1.70;;;;;;;28.09;29.52;100226.44;12194919;19;20098;-87
2022/07/05 10:56:12;;;;;;;2.53;1.35;;;;;;;27.19;31.32;100200.88;12201598;19;20040;-86
2022/07/05 11:05:47;;;;;;;1.45;1.00;;;;;;;28.09;30.51;100206.59;12205756;19;20026;-89
2022/07/05 11:10:06;;;;;;;5.20;1.38;;;;;;;28.31;30.23;100197.53;12203337;19;20078;-86
2022/07/05 11:14:29;;;;;;;2.22;1.30;;;;;;;27.40;30.49;100200.78;12177671;19;20010;-87
2022/07/05 11:18:31;;;;;;;2.57;1.20;;;;;;;27.47;29.86;100189.69;12200652;19;20046;-87
2022/07/05 11:22:35;;;;;;;1.88;1.63;;;;;;;28.13;29.05;100191.34;12214088;19;20055;-85
2022/07/05 11:26:37;;;;;;;1.27;0.90;;;;;;;28.78;28.93;100181.88;12221633;19;20018;-87
2022/07/05 11:30:56;;;;;;;4.05;1.05;;;;;;;29.11;27.54;100177.91;12208235;19;20026;-86
2022/07/05 11:35:14;;;;;;;5.03;1.40;;;;;;;29.15;27.89;100188.16;12191737;19;20006;-85
2022/07/05 11:39:20;;;;;;;3.13;1.15;;;;;;;28.88;28.24;100181.31;12205245;19;20002;-85
2022/07/05 11:43:28;;;;;;;3.65;1.42;;;;;;;29.08;27.93;100180.25;12208273;19;20014;-85
2022/07/05 11:47:44;;;;;;;3.33;1.17;;;;;;;28.24;27.95;100173.84;12188974;19;20097;-86
2022/07/05 11:51:58;;;;;;;5.40;1.40;;;;;;;28.27;28.76;100162.63;12218622;19;20427;-86
2022/07/05 11:56:01;;;;;;;3.53;1.13;;;;;;;28.25;28.43;100167.81;12184494;19;20006;-87
2022/07/05 12:00:09;;;;;;;1.92;1.08;;;;;;;27.55;29.45;100170.94;12207888;19;20006;-85
2022/07/05 12:04:30;;;;;;;2.58;1.23;;;;;;;26.96;29.46;100168.53;12184673;19;20023;-86
2022/07/05 12:08:34;;;;;;;4.07;1.35;;;;;;;27.71;29.46;100163.34;12200679;19;20002;-86
2022/07/05 12:12:44;;;;;;;3.33;1.13;;;;;;;28.80;27.99;100163.31;12189951;19;20009;-86
2022/07/05 12:21:59;;;;;;;2.88;1.88;;;;;;;29.17;28.02;100142.38;12206722;19;20018;-86
2022/07/05 12:26:35;;;;;;;1.20;1.10;;;;;;;30.70;26.17;100142.09;12206172;19;20018;-86
2022/07/05 12:30:41;;;;;;;3.03;1.30;;;;;;;32.28;25.15;100144.56;12207877;19;20092;-86
2022/07/05 12:34:45;;;;;;;;;;;;;;;32.74;23.60;100149.97;12177651;19;20011;-85
2022/07/05 12:38:50;;;;;;;4.93;1.55;;;;;;;31.11;24.28;100150.94;12195724;19;19946;-85
2022/07/05 12:43:22;;;;;;;2.65;1.60;;;;;;;30.19;25.78;100150.78;12200969;19;20002;-88
2022/07/05 12:47:37;;;;;;;1.88;1.05;;;;;;;31.70;25.33;100140.91;12181042;19;20117;-88
2022/07/05 13:06:19;;;;;;;;;;;;;;;32.63;22.76;100122.16;12093141;19;2004273;-87
2022/07/05 13:38:59;;;;;;;3.65;1.42;;;;;;;38.91;16.83;100108.63;12211457;19;20013;-86
2022/07/05 13:43:21;;;;;;;2.45;1.52;;;;;;;39.40;16.79;100105.31;12231909;19;20010;-87
2022/07/05 13:48:09;;;;;;;3.50;1.20;;;;;;;40.39;15.54;100107.41;12207537;19;20037;-81
2022/07/05 13:52:11;;;;;;;3.83;1.40;;;;;;;40.72;15.13;100105.41;12218821;19;20014;-84
2022/07/05 13:56:22;;;;;;;4.82;1.30;;;;;;;41.00;14.58;100103.09;12189154;19;20018;-87
2022/07/05 14:00:46;;;;;;;3.17;1.40;;;;;;;40.58;14.55;100105.75;12210435;19;20021;-84
2022/07/05 14:05:10;;;;;;;3.10;1.33;;;;;;;40.41;14.93;100107.78;12191906;19;20018;-86
2022/07/05 14:09:12;;;;;;;4.93;1.60;;;;;;;38.09;16.91;100095.41;12211571;19;20003;-86
2022/07/05 14:13:21;;;;;;;4.40;2.33;;;;;;;39.55;15.84;100100.91;12216230;19;20487;-86
2022/07/05 14:17:24;;;;;;;2.45;1.42;;;;;;;40.78;14.82;100091.25;12191995;19;20371;-85
2022/07/05 14:21:35;;;;;;;1.98;1.30;;;;;;;41.30;14.55;100096.13;12211596;19;20006;-85
2022/07/05 14:26:03;;;;;;;3.17;1.27;;;;;;;41.61;13.58;100096.53;12195555;19;20074;-88
2022/07/05 14:30:23;;;;;;;5.65;1.50;;;;;;;40.20;14.33;100088.09;12213755;19;20369;-88
2022/07/05 14:34:36;;;;;;;2.08;1.30;;;;;;;37.37;16.16;100083.88;12210310;19;20006;-87
2022/07/05 15:23:13;;;;;;;2.65;1.17;;;;;;;38.59;14.66;100042.06;12203904;19;20006;-87
2022/07/05 15:32:54;;;;;;;5.85;1.50;;;;;;;36.19;16.29;100042.53;12237989;19;20018;-84
2022/07/05 15:37:03;;;;;;;3.78;1.40;;;;;;;34.14;17.28;100035.44;12202729;19;20011;-85
2022/07/05 15:41:05;;;;;;;1.73;1.25;;;;;;;33.12;18.55;100034.53;12183105;19;20003;-83
2022/07/05 15:45:07;;;;;;;3.15;1.30;;;;;;;32.32;19.75;100037.06;12208259;19;20014;-83
2022/07/05 15:49:09;;;;;;;2.90;1.40;;;;;;;31.85;19.98;100036.50;12209442;19;20042;-84
2022/07/05 15:53:12;;;;;;;2.97;1.48;;;;;;;31.19;20.61;100030.31;12171830;19;20076;-83
2022/07/05 15:57:15;;;;;;;3.70;1.25;;;;;;;30.72;20.82;100025.06;12214115;19;20010;-86
2022/07/05 16:01:17;;;;;;;;;;;;;;;30.30;21.58;100028.81;12205891;19;20397;-86
2022/07/05 16:05:19;;;;;;;2.72;1.25;;;;;;;29.91;21.75;100026.84;12178923;19;20272;-85
2022/07/05 16:09:21;;;;;;;1.65;1.20;;;;;;;29.61;22.23;100034.31;12195687;19;20015;-86
2022/07/05 16:13:22;;;;;;;2.25;0.90;;;;;;;29.41;23.07;100031.44;12200145;19;20007;-85
2022/07/05 16:17:24;;;;;;;2.10;1.35;;;;;;;29.35;22.97;100034.94;12173546;19;20054;-86
2022/07/05 16:21:26;;;;;;;4.75;1.55;;;;;;;29.28;24.02;100027.09;12203629;19;20006;-84
2022/07/05 16:25:29;;;;;;;5.30;1.40;;;;;;;29.16;23.73;100027.25;12208905;19;20002;-82
2022/07/05 16:29:30;;;;;;;2.38;1.52;;;;;;;29.38;23.97;100032.19;12182964;19;20027;-83
2022/07/05 16:33:38;;;;;;;3.13;1.30;;;;;;;29.19;24.52;100023.66;12198627;19;20467;-82
2022/07/05 16:37:40;;;;;;;2.83;1.50;;;;;;;28.77;25.08;100022.25;12173088;19;20010;-83
2022/07/05 16:41:42;;;;;;;4.28;1.70;;;;;;;28.58;25.36;100025.00;12204686;19;20724;-82
2022/07/05 16:45:44;;;;;;;2.15;1.30;;;;;;;28.40;25.98;100030.16;12202513;19;20388;-82
2022/07/05 16:49:45;;;;;;;3.85;1.60;;;;;;;28.37;26.08;100013.91;12180953;19;20168;-81
2022/07/05 16:53:49;;;;;;;2.50;1.45;;;;;;;28.27;26.53;100018.09;12198108;19;20611;-83
2022/07/05 16:57:53;;;;;;;5.32;1.70;;;;;;;28.18;27.44;100018.28;12200481;19;20034;-83
2022/07/05 17:01:55;;;;;;;7.07;1.70;;;;;;;27.93;27.32;100022.41;12194935;19;20038;-83
2022/07/05 17:05:57;;;;;;;2.53;1.67;;;;;;;27.65;28.33;100031.72;12212738;19;20035;-83
2022/07/05 17:09:59;;;;;;;4.65;2.42;;;;;;;27.37;28.57;100028.06;12213631;19;20519;-82
2022/07/05 17:14:01;;;;;;;3.22;1.90;;;;;;;27.21;28.80;100034.44;12192330;19;20018;-82
2022/07/05 17:18:02;;;;;;;7.90;2.15;;;;;;;27.06;29.83;100035.13;12219699;19;20046;-83
2022/07/05 17:22:05;;;;;;;4.38;1.80;;;;;;;26.86;30.55;100045.44;12209917;19;20452;-85
2022/07/05 17:26:07;;;;;;;;;;;;;;;26.63;30.65;100045.06;12193805;19;20475;-83
2022/07/05 17:30:09;;;;;;;8.23;2.10;;;;;;;26.51;31.17;100048.69;12206170;19;19990;-83
2022/07/05 17:34:12;;;;;;;8.60;2.33;;;;;;;26.58;31.43;100045.28;12216675;19;20010;-82
2022/07/05 17:38:14;;;;;;;3.58;2.20;;;;;;;27.00;31.47;100045.03;12194798;19;20021;-82
2022/07/05 17:42:15;;;;;;;5.30;2.10;;;;;;;27.22;31.39;100052.25;12210689;19;20470;-81
2022/07/05 17:46:21;;;;;;;5.80;1.90;;;;;;;27.18;31.14;100054.13;12217861;19;20010;-83
2022/07/05 17:50:23;;;;;;;4.28;2.03;;;;;;;27.16;31.24;100057.34;12178612;19;20010;-82
2022/07/05 17:54:35;;;;;;;5.28;2.60;;;;;;;27.09;31.57;100059.06;12215364;19;20508;-85
2022/07/05 17:58:38;;;;;;;3.20;2.30;;;;;;;27.00;31.56;100062.00;12207145;19;20039;-83
2022/07/05 18:02:40;;;;;;;5.65;2.28;;;;;;;26.81;32.21;100056.97;12212466;19;20006;-85
2022/07/05 18:06:42;;;;;;;7.18;2.75;;;;;;;26.66;32.32;100052.84;12221691;19;20003;-84
2022/07/05 18:10:44;;;;;;;7.03;3.00;;;;;;;26.44;32.69;100067.38;12194977;19;20023;-83
2022/07/05 18:14:46;;;;;;;;;;;;;;;26.26;33.21;100070.38;12211054;19;20598;-82
2022/07/05 18:18:49;;;;;;;3.15;2.15;;;;;;;26.10;33.02;100070.22;12211944;19;19918;-83
2022/07/05 18:22:51;;;;;;;4.40;2.10;;;;;;;25.98;33.41;100077.84;12183381;19;20459;-83
2022/07/05 18:26:57;;;;;;;9.75;2.50;;;;;;;25.83;33.94;100082.97;12220389;19;20109;-88
2022/07/05 18:31:03;;;;;;;7.55;2.30;;;;;;;25.75;33.52;100085.81;12215129;19;21154;-83
2022/07/05 18:35:08;;;;;;;9.63;2.17;;;;;;;25.67;33.94;100081.88;12225885;19;20209;-86
2022/07/05 18:39:10;;;;;;;3.67;2.25;;;;;;;25.46;33.79;100088.38;12229031;19;20013;-86
2022/07/05 18:43:12;;;;;;;4.35;1.90;;;;;;;25.26;34.24;100091.19;12226569;19;20014;-85
2022/07/05 18:47:13;;;;;;;6.47;2.50;;;;;;;25.09;34.05;100092.06;12183783;19;20088;-83
2022/07/05 18:51:17;;;;;;;3.53;2.15;;;;;;;24.94;34.32;100102.75;12215216;19;20471;-84
2022/07/05 18:55:20;;;;;;;3.40;2.10;;;;;;;24.75;34.86;100111.66;12202902;19;20018;-82
2022/07/05 18:59:22;;;;;;;4.60;2.27;;;;;;;24.58;34.86;100133.41;12191576;19;20019;-85
2022/07/05 19:03:28;;;;;;;5.93;2.80;;;;;;;24.44;35.07;100134.44;12209808;19;20073;-87
2022/07/05 19:16:12;;;;;;;5.85;2.25;;;;;;;24.04;35.36;100139.47;12209677;19;20011;-83
2022/07/05 19:20:15;;;;;;;5.00;2.47;;;;;;;24.00;35.57;100139.28;12187545;19;20010;-83
2022/07/05 19:24:37;;;;;;;4.65;2.00;;;;;;;23.89;35.42;100146.41;12193617;19;20035;-83
2022/07/05 19:28:39;;;;;;;5.72;2.30;;;;;;;23.78;35.82;100147.91;12188272;19;20011;-82
2022/07/05 19:32:40;;;;;;;3.93;2.00;;;;;;;23.62;35.79;100165.22;12205454;19;20010;-82
2022/07/05 19:36:42;;;;;;;9.30;2.10;;;;;;;23.52;36.17;100164.69;12201324;19;20515;-82
2022/07/05 19:40:46;;;;;;;3.40;1.90;;;;;;;23.39;36.14;100167.31;12180683;19;20066;-82
2022/07/05 19:44:50;;;;;;;6.72;1.90;;;;;;;23.29;36.26;100169.59;12205767;19;20018;-82
2022/07/05 19:48:51;;;;;;;7.05;1.90;;;;;;;23.17;36.58;100171.09;12204641;19;20094;-81
2022/07/05 19:52:54;;;;;;;2.60;1.80;;;;;;;23.04;36.36;100183.25;12181813;19;20017;-82
2022/07/05 19:56:56;;;;;;;5.10;1.90;;;;;;;22.92;37.04;100185.81;12195980;19;20078;-82
2022/07/05 20:00:58;;;;;;;2.37;1.60;;;;;;;22.87;36.83;100195.19;12197297;19;20029;-82
2022/07/05 20:04:59;;;;;;;4.15;1.80;;;;;;;22.83;36.74;100193.38;12186461;19;20453;-82
2022/07/05 20:09:03;;;;;;;3.70;1.60;;;;;;;22.72;36.96;100206.84;12210245;19;20006;-83
2022/07/05 20:13:04;;;;;;;3.78;1.73;;;;;;;22.59;37.46;100205.78;12196893;19;20010;-82
2022/07/05 20:17:06;;;;;;;6.00;1.40;;;;;;;22.52;37.74;100211.88;12181565;19;20014;-81
2022/07/05 20:21:11;;;;;;;2.55;1.67;;;;;;;22.49;37.76;100206.06;12196714;19;20007;-83
2022/07/05 20:25:12;;;;;;;2.85;1.70;;;;;;;22.46;37.77;100217.94;12198741;19;20010;-82
2022/07/05 20:29:14;;;;;;;2.93;1.70;;;;;;;22.47;37.88;100219.59;12170394;19;20006;-81
2022/07/05 20:33:17;;;;;;;3.17;1.63;;;;;;;22.50;37.45;100222.59;12212777;19;20014;-81
2022/07/05 20:37:19;;;;;;;3.95;2.10;;;;;;;22.51;37.72;100221.44;12216331;19;20011;-81
2022/07/05 20:41:22;;;;;;;;;;;;;;;22.50;37.76;100221.75;12196712;19;20066;-81
2022/07/05 20:45:23;;;;;;;3.85;1.98;;;;;;;22.41;37.77;100224.50;12211275;19;19931;-80
2022/07/05 20:49:25;;;;;;;4.28;1.90;;;;;;;22.33;37.85;100241.28;12211409;19;20015;-81
2022/07/05 20:53:27;;;;;;;4.82;1.90;;;;;;;22.21;38.49;100242.66;12196890;19;20019;-81
2022/07/05 20:57:28;;;;;;;5.72;1.65;;;;;;;22.15;39.04;100246.72;12207250;19;20163;-81
2022/07/05 21:01:30;;;;;;;4.90;1.55;;;;;;;22.06;39.16;100243.00;12213346;19;20015;-80
2022/07/05 21:05:32;;;;;;;3.13;1.70;;;;;;;21.95;39.58;100248.03;12200417;19;20821;-80
2022/07/05 21:09:35;;;;;;;3.85;1.80;;;;;;;21.82;39.59;100262.91;12222817;19;20011;-81
2022/07/05 21:13:37;;;;;;;3.15;1.60;;;;;;;21.77;39.70;100263.00;12215898;19;20069;-81
2022/07/05 21:17:39;;;;;;;2.83;1.85;;;;;;;21.66;39.57;100270.00;12197116;19;20015;-82
2022/07/05 21:21:41;;;;;;;2.28;1.60;;;;;;;21.58;40.14;100274.38;12204298;19;20010;-81